Alton, Kansas
Current Conditions -  °F | °C
As of 12:53 PM on Thursday 23 Oct 2014 (Local Time) from KRSL Reporting Station
Few Clouds Few Clouds  
Wind Chill: 72°   Ceiling: Unl
Heat Index: 72°   Visibility: 10mi
Dew Point: 58°   Wind: 3mph
Humidity: 61%   Direction: NA
Pressure: 30.09"   Gusts: NA
Location:  39.47°N, 98.95°W
Report Text: KRSL 231753Z AUTO VRB03KT 10SM FEW026 22/14 A3009 RMK AO2 SLP178 T02220144 10222 20139 58002
Loading
Personal Weather Stations






























Interactive Weather Map
Tropical Storm Tracking
New forecast layout! Learn more

10-Day Weather Forecast

Advertisements
Track Severe Weather on mobile